createdAt,value
2022-10-28T00:01:27.114Z,101969.84
2022-10-28T00:07:39.283Z,101975.56
2022-10-28T00:10:42.836Z,101970.34
2022-10-28T00:13:47.331Z,101976.28
2022-10-28T00:16:52.480Z,101976.28
2022-10-28T00:19:56.119Z,101980.53
2022-10-28T00:23:00.190Z,101985.84
2022-10-28T00:26:11.055Z,101986.91
2022-10-28T00:29:18.363Z,101979.91
2022-10-28T00:32:23.380Z,101977.25
2022-10-28T00:35:27.071Z,101966.88
2022-10-28T00:38:32.580Z,101970.47
2022-10-28T00:41:39.911Z,101975.84
2022-10-28T00:44:58.734Z,101971.44
2022-10-28T00:48:07.322Z,101961.78
2022-10-28T00:51:12.076Z,101959.94
2022-10-28T00:54:18.308Z,101972.22
2022-10-28T00:57:30.534Z,101966.78
2022-10-28T01:00:34.263Z,101956.22
2022-10-28T01:03:39.568Z,101960.63
2022-10-28T01:06:44.851Z,101964.06
2022-10-28T01:09:48.775Z,101960.59
2022-10-28T01:13:08.675Z,101953.59
2022-10-28T01:16:27.252Z,101938.66
2022-10-28T01:20:17.051Z,101936.00
2022-10-28T01:23:32.587Z,101943.94
2022-10-28T01:27:35.878Z,101936.22
2022-10-28T01:31:29.439Z,101932.91
2022-10-28T01:34:44.108Z,101929.50
2022-10-28T01:38:08.614Z,101929.50
2022-10-28T01:41:18.944Z,101921.56
2022-10-28T01:44:31.355Z,101914.31
2022-10-28T01:47:45.776Z,101907.84
2022-10-28T01:50:58.048Z,101909.72
2022-10-28T01:54:06.721Z,101912.41
2022-10-28T01:57:14.318Z,101904.63
2022-10-28T02:00:19.187Z,101905.63
2022-10-28T02:03:24.443Z,101906.69
2022-10-28T02:06:33.075Z,101907.56
2022-10-28T02:10:04.078Z,101909.56
2022-10-28T02:13:15.664Z,101915.94
2022-10-28T02:16:31.981Z,101909.09
2022-10-28T02:19:49.328Z,101906.63
2022-10-28T02:23:00.315Z,101914.56
2022-10-28T02:26:13.286Z,101912.97
2022-10-28T02:29:24.568Z,101898.78
2022-10-28T02:32:34.930Z,101898.50
2022-10-28T02:35:47.311Z,101886.41
2022-10-28T02:38:54.930Z,101879.28
2022-10-28T02:42:04.342Z,101875.59
2022-10-28T02:45:13.568Z,101867.66
2022-10-28T02:48:27.323Z,101861.56
2022-10-28T02:51:38.531Z,101857.22
2022-10-28T02:54:51.220Z,101859.78
2022-10-28T02:57:55.261Z,101856.94
2022-10-28T03:00:59.058Z,101858.69
2022-10-28T03:04:03.376Z,101859.66
2022-10-28T03:07:08.429Z,101852.59
2022-10-28T03:10:12.263Z,101853.41
2022-10-28T03:13:15.849Z,101841.09
2022-10-28T03:16:19.477Z,101837.50
2022-10-28T03:19:23.375Z,101839.03
2022-10-28T03:22:28.311Z,101839.88
2022-10-28T03:25:32.376Z,101843.34
2022-10-28T03:28:36.057Z,101842.50
2022-10-28T03:31:39.589Z,101838.94
2022-10-28T03:34:43.178Z,101841.34
2022-10-28T03:37:48.223Z,101838.81
2022-10-28T03:40:52.146Z,101845.78
2022-10-28T03:43:55.913Z,101843.09
2022-10-28T03:46:59.522Z,101841.34
2022-10-28T03:50:03.305Z,101838.81
2022-10-28T03:53:08.392Z,101835.41
2022-10-28T03:56:13.559Z,101839.78
2022-10-28T03:59:19.391Z,101838.00
2022-10-28T04:02:24.091Z,101833.53
2022-10-28T04:05:28.091Z,101828.19
2022-10-28T04:08:33.011Z,101824.56
2022-10-28T04:11:36.731Z,101828.13
2022-10-28T04:14:40.473Z,101828.09
2022-10-28T04:17:45.019Z,101821.09
2022-10-28T04:20:48.702Z,101819.31
2022-10-28T04:23:54.006Z,101817.56
2022-10-28T04:26:57.731Z,101814.94
2022-10-28T04:30:01.392Z,101814.03
2022-10-28T04:33:05.086Z,101825.56
2022-10-28T04:36:09.582Z,101818.75
2022-10-28T04:39:14.539Z,101816.31
2022-10-28T04:42:18.315Z,101810.34
2022-10-28T04:45:21.902Z,101815.69
2022-10-28T04:48:25.492Z,101815.78
2022-10-28T04:51:29.032Z,101810.56
2022-10-28T04:54:34.596Z,101807.88
2022-10-28T04:57:38.212Z,101800.09
2022-10-28T05:00:41.838Z,101806.25
2022-10-28T05:03:45.445Z,101799.28
2022-10-28T05:06:49.253Z,101798.56
2022-10-28T05:09:54.168Z,101795.03
2022-10-28T05:12:57.754Z,101793.34
2022-10-28T05:16:01.322Z,101794.06
2022-10-28T05:19:05.119Z,101791.44
2022-10-28T05:22:08.683Z,101790.59
2022-10-28T05:25:13.736Z,101791.53
2022-10-28T05:28:17.637Z,101787.97
2022-10-28T05:31:21.310Z,101791.34
2022-10-28T05:34:24.951Z,101772.97
2022-10-28T05:37:28.519Z,101776.50
2022-10-28T05:40:33.726Z,101765.22
2022-10-28T05:43:37.377Z,101765.22
2022-10-28T05:46:40.996Z,101774.00
2022-10-28T05:49:44.534Z,101775.78
2022-10-28T05:52:49.746Z,101782.03
2022-10-28T05:55:54.632Z,101779.72
2022-10-28T05:58:58.349Z,101778.78
2022-10-28T06:02:01.899Z,101774.38
2022-10-28T06:05:06.749Z,101778.03
2022-10-28T06:08:12.506Z,101778.16
2022-10-28T06:11:16.037Z,101773.91
2022-10-28T06:14:19.617Z,101777.44
2022-10-28T06:17:23.715Z,101779.19
2022-10-28T06:20:27.295Z,101785.44
2022-10-28T06:23:31.024Z,101782.13
2022-10-28T06:26:36.031Z,101785.69
2022-10-28T06:29:39.879Z,101787.47
2022-10-28T06:32:43.450Z,101791.88
2022-10-28T06:35:47.060Z,101778.72
2022-10-28T06:38:53.747Z,101776.06
2022-10-28T06:41:58.789Z,101778.66
2022-10-28T06:45:02.449Z,101793.53
2022-10-28T06:48:07.953Z,101784.75
2022-10-28T06:51:11.638Z,101785.34
2022-10-28T06:54:15.425Z,101790.53
2022-10-28T06:57:20.379Z,101794.44
2022-10-28T07:00:24.073Z,101801.44
2022-10-28T07:03:27.656Z,101810.91
2022-10-28T07:06:31.215Z,101817.78
2022-10-28T07:09:36.548Z,101812.34
2022-10-28T07:12:41.501Z,101807.75
2022-10-28T07:15:45.078Z,101798.00
2022-10-28T07:18:48.797Z,101811.88
2022-10-28T07:21:52.383Z,101804.88
2022-10-28T07:24:55.972Z,101812.44
2022-10-28T07:28:01.977Z,101809.72
2022-10-28T07:31:07.144Z,101814.84
2022-10-28T07:34:10.961Z,101804.13
2022-10-28T07:37:14.545Z,101797.81
2022-10-28T07:40:18.243Z,101807.81
2022-10-28T07:43:23.229Z,101806.47
2022-10-28T07:46:26.937Z,101796.41
2022-10-28T07:49:30.491Z,101802.78
2022-10-28T07:52:35.193Z,101809.75
2022-10-28T07:55:38.874Z,101809.28
2022-10-28T07:58:45.795Z,101805.72
2022-10-28T08:01:49.423Z,101804.41
2022-10-28T08:04:53.727Z,101801.41
2022-10-28T08:07:57.446Z,101793.44
2022-10-28T08:11:01.118Z,101790.34
2022-10-28T08:14:06.109Z,101788.59
2022-10-28T08:17:09.956Z,101783.97
2022-10-28T08:20:13.585Z,101782.78
2022-10-28T08:23:18.237Z,101784.78
2022-10-28T08:26:22.334Z,101775.13
2022-10-28T08:29:29.087Z,101767.34
2022-10-28T08:32:33.730Z,101765.25
2022-10-28T08:35:37.585Z,101756.19
2022-10-28T08:38:45.352Z,101757.66
2022-10-28T08:41:58.164Z,101769.41
2022-10-28T08:45:30.617Z,101760.63
2022-10-28T08:48:37.439Z,101760.03
2022-10-28T08:51:52.103Z,101762.44
2022-10-28T08:55:02.945Z,101754.63
2022-10-28T08:58:15.062Z,101750.06
2022-10-28T09:01:34.144Z,101750.97
2022-10-28T09:04:41.561Z,101757.19
2022-10-28T09:07:45.153Z,101759.81
2022-10-28T09:11:15.558Z,101761.56
2022-10-28T09:14:43.354Z,101745.25
2022-10-28T09:17:55.990Z,101749.03
2022-10-28T09:21:07.289Z,101748.16
2022-10-28T09:24:22.125Z,101742.50
2022-10-28T09:27:49.850Z,101738.75
2022-10-28T09:31:10.722Z,101744.84
2022-10-28T09:34:31.421Z,101740.53
2022-10-28T09:37:41.619Z,101733.94
2022-10-28T09:40:53.943Z,101732.28
2022-10-28T09:44:07.265Z,101726.66
2022-10-28T09:47:20.346Z,101736.66
2022-10-28T09:50:31.778Z,101738.91
2022-10-28T09:53:45.862Z,101738.19
2022-10-28T09:56:49.507Z,101730.81
2022-10-28T09:59:53.579Z,101735.78
2022-10-28T10:02:59.953Z,101731.94
2022-10-28T10:06:14.444Z,101721.19
2022-10-28T10:09:24.987Z,101721.00
2022-10-28T10:12:32.454Z,101714.28
2022-10-28T10:15:41.266Z,101706.13
2022-10-28T10:18:52.241Z,101711.09
2022-10-28T10:21:57.423Z,101712.13
2022-10-28T10:25:01.201Z,101713.84
2022-10-28T10:28:16.783Z,101709.81
2022-10-28T10:31:24.107Z,101709.13
2022-10-28T10:34:30.169Z,101710.50
2022-10-28T10:37:37.614Z,101712.13
2022-10-28T10:40:51.021Z,101716.00
2022-10-28T10:43:55.227Z,101719.44
2022-10-28T10:47:22.808Z,101711.00
2022-10-28T10:50:33.105Z,101711.00
2022-10-28T10:53:41.078Z,101703.34
2022-10-28T10:56:45.357Z,101706.09
2022-10-28T10:59:53.484Z,101705.13
2022-10-28T11:02:58.583Z,101697.13
2022-10-28T11:06:22.684Z,101700.19
2022-10-28T11:09:35.293Z,101701.69
2022-10-28T11:12:41.654Z,101699.50
2022-10-28T11:16:00.095Z,101699.13
2022-10-28T11:19:21.778Z,101698.66
2022-10-28T11:22:49.143Z,101704.00
2022-10-28T11:26:01.144Z,101697.34
2022-10-28T11:29:13.215Z,101694.41
2022-10-28T11:33:01.686Z,101689.66
2022-10-28T11:36:29.237Z,101683.59
2022-10-28T11:39:40.402Z,101685.59
2022-10-28T11:42:56.183Z,101673.13
2022-10-28T11:46:10.252Z,101664.75
2022-10-28T11:49:42.044Z,101657.69
2022-10-28T11:53:27.183Z,101658.47
2022-10-28T11:56:38.992Z,101652.34
2022-10-28T12:00:08.269Z,101647.16
2022-10-28T12:04:01.333Z,101651.75
2022-10-28T12:07:39.912Z,101649.53
2022-10-28T12:11:03.992Z,101639.34
2022-10-28T12:14:22.417Z,101644.53
2022-10-28T12:17:40.683Z,101640.88
2022-10-28T12:20:52.951Z,101632.03
2022-10-28T12:24:00.123Z,101635.53
2022-10-28T12:27:17.034Z,101634.03
2022-10-28T12:30:28.526Z,101631.94
2022-10-28T12:33:40.635Z,101630.72
2022-10-28T12:36:50.934Z,101629.69
2022-10-28T12:40:07.350Z,101619.75
2022-10-28T12:43:19.166Z,101618.66
2022-10-28T12:46:40.015Z,101630.31
2022-10-28T12:50:01.652Z,101632.16
2022-10-28T12:53:29.872Z,101621.69
2022-10-28T12:56:38.662Z,101625.13
2022-10-28T12:59:49.250Z,101622.84
2022-10-28T13:03:01.476Z,101617.72
2022-10-28T13:06:41.701Z,101615.16
2022-10-28T13:09:58.654Z,101631.53
2022-10-28T13:13:36.825Z,101629.16
2022-10-28T13:17:17.000Z,101618.88
2022-10-28T13:20:32.621Z,101603.13
2022-10-28T13:23:46.093Z,101606.88
2022-10-28T13:26:51.104Z,101598.88
2022-10-28T13:30:01.964Z,101593.41
2022-10-28T13:33:10.906Z,101596.97
2022-10-28T13:36:21.470Z,101590.47
2022-10-28T13:39:43.324Z,101599.63
2022-10-28T13:42:49.294Z,101603.44
2022-10-28T13:45:55.816Z,101605.13
2022-10-28T13:49:24.881Z,101591.41
2022-10-28T13:52:28.464Z,101597.34
2022-10-28T13:55:45.802Z,101587.66
2022-10-28T13:58:56.746Z,101582.44
2022-10-28T14:02:33.308Z,101580.81
2022-10-28T14:05:55.212Z,101580.03
2022-10-28T14:08:59.391Z,101574.69
2022-10-28T14:12:18.923Z,101572.28
2022-10-28T14:15:30.573Z,101570.31
2022-10-28T14:18:43.782Z,101584.56
2022-10-28T14:22:02.122Z,101570.72
2022-10-28T14:26:01.076Z,101563.56
2022-10-28T14:29:29.758Z,101573.59
2022-10-28T14:33:31.311Z,101577.22
2022-10-28T14:36:48.993Z,101581.59
2022-10-28T14:40:09.632Z,101593.88
2022-10-28T14:43:38.689Z,101599.31
2022-10-28T14:47:05.411Z,101582.00
2022-10-28T14:50:20.416Z,101582.06
2022-10-28T14:53:30.606Z,101578.16
2022-10-28T14:56:36.299Z,101575.22
2022-10-28T14:59:44.705Z,101584.81
2022-10-28T15:02:51.502Z,101580.75
2022-10-28T15:05:57.085Z,101587.47
2022-10-28T15:09:11.553Z,101597.53
2022-10-28T15:12:18.896Z,101586.69
2022-10-28T15:15:25.878Z,101582.97
2022-10-28T15:18:30.808Z,101577.81
2022-10-28T15:21:34.354Z,101580.88
2022-10-28T15:24:40.385Z,101586.84
2022-10-28T15:27:48.299Z,101586.75
2022-10-28T15:30:52.043Z,101587.50
2022-10-28T15:33:57.238Z,101604.78
2022-10-28T15:37:01.353Z,101594.06
2022-10-28T15:40:23.200Z,101594.34
2022-10-28T15:43:29.646Z,101602.19
2022-10-28T15:46:35.299Z,101609.56
2022-10-28T15:49:42.506Z,101607.22
2022-10-28T15:52:48.267Z,101612.59
2022-10-28T15:56:21.782Z,101617.66
2022-10-28T15:59:27.856Z,101619.34
2022-10-28T16:02:45.982Z,101613.09
2022-10-28T16:05:51.466Z,101624.03
2022-10-28T16:09:19.288Z,101628.59
2022-10-28T16:12:27.646Z,101638.97
2022-10-28T16:15:31.689Z,101637.91
2022-10-28T16:18:45.046Z,101640.31
2022-10-28T16:21:50.029Z,101657.50
2022-10-28T16:24:55.418Z,101665.53
2022-10-28T16:27:59.042Z,101663.81
2022-10-28T16:31:04.084Z,101667.78
2022-10-28T16:34:07.740Z,101665.72
2022-10-28T16:37:27.046Z,101659.84
2022-10-28T16:40:50.565Z,101666.25
2022-10-28T16:43:55.917Z,101667.31
2022-10-28T16:46:59.557Z,101667.66
2022-10-28T16:50:03.098Z,101675.25
2022-10-28T16:53:08.257Z,101680.41
2022-10-28T16:56:14.690Z,101683.34
2022-10-28T16:59:19.602Z,101674.13
2022-10-28T17:02:29.827Z,101686.31
2022-10-28T17:05:34.582Z,101690.44
2022-10-28T17:09:01.881Z,101686.94
2022-10-28T17:12:03.127Z,101693.91
2022-10-28T17:15:08.213Z,101696.31
2022-10-28T17:18:15.034Z,101699.19
2022-10-28T17:21:18.678Z,101706.19
2022-10-28T17:24:23.669Z,101705.19
2022-10-28T17:27:27.470Z,101690.56
2022-10-28T17:30:31.916Z,101699.31
2022-10-28T17:33:36.199Z,101698.09
2022-10-28T17:36:40.048Z,101704.13
2022-10-28T17:39:45.094Z,101703.19
2022-10-28T17:42:48.791Z,101713.50
2022-10-28T17:45:52.866Z,101709.84
2022-10-28T17:48:56.638Z,101709.66
2022-10-28T17:52:00.177Z,101728.22
2022-10-28T17:55:06.008Z,101734.63
2022-10-28T17:58:10.056Z,101734.44
2022-10-28T18:01:13.759Z,101737.09
2022-10-28T18:04:19.929Z,101742.75
2022-10-28T18:07:23.971Z,101741.72
2022-10-28T18:10:28.946Z,101743.91
2022-10-28T18:13:34.750Z,101736.47
2022-10-28T18:16:38.941Z,101741.03
2022-10-28T18:19:42.695Z,101751.66
2022-10-28T18:22:46.264Z,101752.56
2022-10-28T18:25:59.872Z,101749.75
2022-10-28T18:29:04.900Z,101751.66
2022-10-28T18:32:08.822Z,101765.09
2022-10-28T18:35:12.650Z,101762.72
2022-10-28T18:38:16.228Z,101772.66
2022-10-28T18:41:24.317Z,101783.97
2022-10-28T18:44:31.857Z,101777.56
2022-10-28T18:47:36.383Z,101782.19
2022-10-28T18:50:40.144Z,101788.78
2022-10-28T18:53:46.984Z,101800.50
2022-10-28T18:56:56.587Z,101807.53
2022-10-28T19:00:18.407Z,101807.84
2022-10-28T19:03:24.626Z,101817.72
2022-10-28T19:06:32.612Z,101816.47
2022-10-28T19:09:36.599Z,101826.69
2022-10-28T19:12:44.988Z,101835.88
2022-10-28T19:15:51.878Z,101826.94
2022-10-28T19:18:57.151Z,101829.31
2022-10-28T19:22:00.805Z,101848.03
2022-10-28T19:25:04.670Z,101847.19
2022-10-28T19:28:10.317Z,101855.13
2022-10-28T19:31:17.139Z,101862.34
2022-10-28T19:34:20.935Z,101855.16
2022-10-28T19:37:25.050Z,101875.50
2022-10-28T19:40:28.759Z,101875.75
2022-10-28T19:43:34.014Z,101873.09
2022-10-28T19:46:38.055Z,101887.13
2022-10-28T19:49:44.268Z,101884.41
2022-10-28T19:52:48.151Z,101882.53
2022-10-28T19:55:56.958Z,101890.84
2022-10-28T19:59:04.330Z,101909.47
2022-10-28T20:02:08.461Z,101903.16
2022-10-28T20:05:12.108Z,101899.63
2022-10-28T20:08:17.244Z,101913.22
2022-10-28T20:11:26.276Z,101926.53
2022-10-28T20:14:32.660Z,101940.91
2022-10-28T20:17:36.421Z,101947.06
2022-10-28T20:20:39.958Z,101952.38
2022-10-28T20:23:45.172Z,101947.81
2022-10-28T20:26:48.828Z,101935.81
2022-10-28T20:29:53.866Z,101932.63
2022-10-28T20:32:57.451Z,101935.75
2022-10-28T20:36:01.087Z,101936.81
2022-10-28T20:39:08.908Z,101944.63
2022-10-28T20:42:12.880Z,101945.69
2022-10-28T20:45:17.949Z,101962.03
2022-10-28T20:48:22.272Z,101968.38
2022-10-28T20:51:27.947Z,101983.44
2022-10-28T20:54:31.574Z,101983.63
2022-10-28T20:57:35.322Z,101980.22
2022-10-28T21:00:40.455Z,101980.50
2022-10-28T21:03:44.477Z,101980.72
2022-10-28T21:06:48.101Z,101987.16
2022-10-28T21:09:51.659Z,101987.47
2022-10-28T21:12:56.349Z,101990.13
2022-10-28T21:16:05.690Z,102001.06
2022-10-28T21:19:09.350Z,102000.56
2022-10-28T21:22:12.966Z,102012.06
2022-10-28T21:25:16.693Z,102009.78
2022-10-28T21:28:20.482Z,102019.50
2022-10-28T21:31:26.385Z,102025.31
2022-10-28T21:34:29.973Z,102032.50
2022-10-28T21:37:33.796Z,102036.31
2022-10-28T21:40:37.355Z,102039.69
2022-10-28T21:43:44.202Z,102036.94
2022-10-28T21:46:49.924Z,102044.88
2022-10-28T21:49:53.522Z,102036.47
2022-10-28T21:52:57.058Z,102024.28
2022-10-28T21:56:05.534Z,102024.50
2022-10-28T21:59:09.275Z,102027.94
2022-10-28T22:02:14.342Z,102026.25
2022-10-28T22:05:17.953Z,102022.09
2022-10-28T22:08:22.169Z,102029.28
2022-10-28T22:11:27.035Z,102037.50
2022-10-28T22:14:30.857Z,102032.44
2022-10-28T22:17:35.843Z,102030.06
2022-10-28T22:20:39.508Z,102042.69
2022-10-28T22:23:43.394Z,102041.69
2022-10-28T22:26:47.063Z,102026.19
2022-10-28T22:29:50.621Z,102023.59
2022-10-28T22:32:55.980Z,102031.88
2022-10-28T22:36:01.390Z,102032.09
2022-10-28T22:39:06.423Z,102032.31
2022-10-28T22:42:10.463Z,102039.56
2022-10-28T22:45:34.007Z,102067.13
2022-10-28T22:48:39.630Z,102055.88
2022-10-28T22:51:43.248Z,102061.44
2022-10-28T22:54:46.800Z,102067.75
2022-10-28T22:57:50.425Z,102052.91
2022-10-28T23:00:54.078Z,102061.84
2022-10-28T23:03:59.222Z,102053.00
2022-10-28T23:07:03.191Z,102052.16
2022-10-28T23:10:08.017Z,102072.50
2022-10-28T23:13:14.437Z,102065.41
2022-10-28T23:16:18.137Z,102056.75
2022-10-28T23:19:24.690Z,102060.41
2022-10-28T23:22:30.495Z,102078.16
2022-10-28T23:25:34.148Z,102074.53
2022-10-28T23:28:37.766Z,102085.00
2022-10-28T23:31:41.442Z,102090.03
2022-10-28T23:34:46.446Z,102084.91
2022-10-28T23:37:50.198Z,102083.28
2022-10-28T23:41:01.874Z,102091.38
2022-10-28T23:44:05.846Z,102090.56
2022-10-28T23:47:09.421Z,102088.94
2022-10-28T23:50:15.133Z,102081.25
2022-10-28T23:53:19.730Z,102086.53
2022-10-28T23:56:23.394Z,102085.81
2022-10-28T23:59:26.941Z,102091.28
